Wind From: 11-12-2017 07:30 Until: 12-12-2017 06:00 warning for: Wind Level: Orange info button

Power and phone distribution networks may be disrupted for relatively long periods., Roofs and chimneys can be damaged. , Tree branches may break. , Vehicles can be deported. , Traffic may be disrupted, particularly on secondary roads in forest areas. Limit your trips. , Limit your speed in highway driving, especially if you drive a vehicle or hitch sensitive to wind. , Do not go for walks in forests or along the coast., In town, be vigilant against possible falling objects., Do not work on roofs and do not touch any electrical line fallen on the ground., Store or secure sensitive objects to wind or likely to be damaged., Always install power generators outside buildings. 


Meteo18 Weather Cam more information Meteo18 Weather Cam


Thunder radar more information blitzortung!


Rain radar more information rain snow radar


Visit our other weather sites:

Template documentation
and downloads

And another site



Weather Underground History page Text

Daily Summary for June 17, 2017 Units:  Both    English   Metric
« Previous Day
Next Day »
Daily Weekly Monthly Yearly Custom
  High: Low: Average:
Temperature: 78.4 °F /  25.8 °C 54.5 °F /  12.5 °C 67.6 °F /  19.8 °C
Dew Point: 59.2 °F /  15.1 °C 50.2 °F /  10.1 °C 54.9 °F /  12.7 °C
Humidity: 86 % 47 % 65 %
Wind Speed: 20 mph /  32.2 km/h - 5.9 mph /  9.5 km/h
Wind Gust: 22 mph /  35.4 km/h - -
Wind:- - East
Pressure: 30.4 in /  1028.7 hPa 30.3 in /  1024.3 hPa -
Precipitation: 0 in /  0.0 mm    
Historical Graphs
 
 
Tabular Data for June 17, 2017
Time Temperature Dew Point Pressure Wind Wind Speed Wind Gust Humidity Rainfall Rate (Hourly)
00:02 61 °F /  16.1 °C 52.7 °F /  11.5 °C 30.3 in /  1027.3 hPa Calm   2 mph /  3.2 km/h 74 % 0 in /  0.0 mm
00:07 61 °F /  16.1 °C 52.7 °F /  11.5 °C 30.3 in /  1027.3 hPa NNW 1 mph /  1.6 km/h 2 mph /  3.2 km/h 74 % 0 in /  0.0 mm
00:12 61.2 °F /  16.2 °C 52.5 °F /  11.4 °C 30.3 in /  1027.3 hPa Calm   2 mph /  3.2 km/h 73 % 0 in /  0.0 mm
00:17 61 °F /  16.1 °C 52.3 °F /  11.3 °C 30.3 in /  1027.3 hPa Calm   2 mph /  3.2 km/h 73 % 0 in /  0.0 mm
00:22 61 °F /  16.1 °C 52.7 °F /  11.5 °C 30.3 in /  1027.3 hPa Calm   2 mph /  3.2 km/h 74 % 0 in /  0.0 mm
00:32 60.8 °F /  16.0 °C 52.5 °F /  11.4 °C 30.3 in /  1027.3 hPa Calm   1 mph /  1.6 km/h 74 % 0 in /  0.0 mm
00:37 61 °F /  16.1 °C 52.7 °F /  11.5 °C 30.3 in /  1027.3 hPa WNW 2 mph /  3.2 km/h 2 mph /  3.2 km/h 74 % 0 in /  0.0 mm
00:42 61 °F /  16.1 °C 52.3 °F /  11.3 °C 30.3 in /  1027.3 hPa Calm   2 mph /  3.2 km/h 73 % 0 in /  0.0 mm
00:47 61 °F /  16.1 °C 52.3 °F /  11.3 °C 30.3 in /  1027.3 hPa WNW 1 mph /  1.6 km/h 2 mph /  3.2 km/h 73 % 0 in /  0.0 mm
00:52 60.8 °F /  16.0 °C 52.5 °F /  11.4 °C 30.3 in /  1027.3 hPa Calm   2 mph /  3.2 km/h 74 % 0 in /  0.0 mm
00:57 60.6 °F /  15.9 °C 52.3 °F /  11.3 °C 30.3 in /  1027.3 hPa Calm   2 mph /  3.2 km/h 74 % 0 in /  0.0 mm
01:02 60.4 °F /  15.8 °C 52.5 °F /  11.4 °C 30.3 in /  1027.3 hPa Calm   2 mph /  3.2 km/h 75 % 0 in /  0.0 mm
01:07 60.3 °F /  15.7 °C 52.3 °F /  11.3 °C 30.3 in /  1027.3 hPa Calm   2 mph /  3.2 km/h 75 % 0 in /  0.0 mm
01:12 60.1 °F /  15.6 °C 52.2 °F /  11.2 °C 30.3 in /  1027.3 hPa Calm   1 mph /  1.6 km/h 75 % 0 in /  0.0 mm
01:17 59.9 °F /  15.5 °C 52.3 °F /  11.3 °C 30.3 in /  1027.3 hPa NNE 1 mph /  1.6 km/h 2 mph /  3.2 km/h 76 % 0 in /  0.0 mm
01:22 59.7 °F /  15.4 °C 52.2 °F /  11.2 °C 30.3 in /  1027.3 hPa Calm   3 mph /  4.8 km/h 76 % 0 in /  0.0 mm
01:27 59.9 °F /  15.5 °C 52.3 °F /  11.3 °C 30.3 in /  1027.3 hPa Calm   5 mph /  8.0 km/h 76 % 0 in /  0.0 mm
01:32 59.7 °F /  15.4 °C 52.5 °F /  11.4 °C 30.3 in /  1027.3 hPa NNW 1 mph /  1.6 km/h 5 mph /  8.0 km/h 77 % 0 in /  0.0 mm
01:37 60.1 °F /  15.6 °C 52.9 °F /  11.6 °C 30.3 in /  1027.3 hPa Calm   5 mph /  8.0 km/h 77 % 0 in /  0.0 mm
01:42 60.1 °F /  15.6 °C 52.9 °F /  11.6 °C 30.3 in /  1027.3 hPa Calm   5 mph /  8.0 km/h 77 % 0 in /  0.0 mm
01:47 60.1 °F /  15.6 °C 52.9 °F /  11.6 °C 30.3 in /  1027.3 hPa NNE 1 mph /  1.6 km/h 6 mph /  9.7 km/h 77 % 0 in /  0.0 mm
01:52 60.1 °F /  15.6 °C 52.9 °F /  11.6 °C 30.3 in /  1027.0 hPa NNW 2 mph /  3.2 km/h 6 mph /  9.7 km/h 77 % 0 in /  0.0 mm
01:57 60.1 °F /  15.6 °C 52.9 °F /  11.6 °C 30.3 in /  1027.0 hPa North 3 mph /  4.8 km/h 6 mph /  9.7 km/h 77 % 0 in /  0.0 mm
02:02 60.1 °F /  15.6 °C 52.9 °F /  11.6 °C 30.3 in /  1027.0 hPa North 1 mph /  1.6 km/h 6 mph /  9.7 km/h 77 % 0 in /  0.0 mm
02:07 60.1 °F /  15.6 °C 52.9 °F /  11.6 °C 30.3 in /  1027.0 hPa NNE 2 mph /  3.2 km/h 7 mph /  11.3 km/h 77 % 0 in /  0.0 mm
02:12 60.1 °F /  15.6 °C 52.9 °F /  11.6 °C 30.3 in /  1027.0 hPa NNW 2 mph /  3.2 km/h 9 mph /  14.5 km/h 77 % 0 in /  0.0 mm
02:17 60.1 °F /  15.6 °C 53.2 °F /  11.8 °C 30.3 in /  1027.0 hPa NNW 2 mph /  3.2 km/h 9 mph /  14.5 km/h 78 % 0 in /  0.0 mm
02:22 60.1 °F /  15.6 °C 52.9 °F /  11.6 °C 30.3 in /  1027.0 hPa Calm   9 mph /  14.5 km/h 77 % 0 in /  0.0 mm
02:27 59.9 °F /  15.5 °C 53.1 °F /  11.7 °C 30.3 in /  1027.0 hPa North 1 mph /  1.6 km/h 8 mph /  12.9 km/h 78 % 0 in /  0.0 mm
02:32 59.7 °F /  15.4 °C 52.9 °F /  11.6 °C 30.3 in /  1027.0 hPa North 2 mph /  3.2 km/h 8 mph /  12.9 km/h 78 % 0 in /  0.0 mm
02:37 59.7 °F /  15.4 °C 52.9 °F /  11.6 °C 30.3 in /  1027.0 hPa NE 2 mph /  3.2 km/h 8 mph /  12.9 km/h 78 % 0 in /  0.0 mm
02:42 59.7 °F /  15.4 °C 52.9 °F /  11.6 °C 30.3 in /  1027.0 hPa ENE 3 mph /  4.8 km/h 8 mph /  12.9 km/h 78 % 0 in /  0.0 mm
02:47 59.5 °F /  15.3 °C 53.1 °F /  11.7 °C 30.3 in /  1027.0 hPa NE 2 mph /  3.2 km/h 8 mph /  12.9 km/h 79 % 0 in /  0.0 mm
02:52 59.5 °F /  15.3 °C 53.1 °F /  11.7 °C 30.3 in /  1027.0 hPa NE 1 mph /  1.6 km/h 6 mph /  9.7 km/h 79 % 0 in /  0.0 mm
02:57 59.4 °F /  15.2 °C 52.9 °F /  11.6 °C 30.3 in /  1027.0 hPa Calm   6 mph /  9.7 km/h 79 % 0 in /  0.0 mm
03:02 59.2 °F /  15.1 °C 52.7 °F /  11.5 °C 30.3 in /  1027.0 hPa NE 3 mph /  4.8 km/h 5 mph /  8.0 km/h 79 % 0 in /  0.0 mm
03:07 59.2 °F /  15.1 °C 53.1 °F /  11.7 °C 30.3 in /  1027.0 hPa NE 4 mph /  6.4 km/h 5 mph /  8.0 km/h 80 % 0 in /  0.0 mm
03:12 59 °F /  15.0 °C 52.9 °F /  11.6 °C 30.3 in /  1027.0 hPa NNE 1 mph /  1.6 km/h 6 mph /  9.7 km/h 80 % 0 in /  0.0 mm
03:17 58.8 °F /  14.9 °C 52.7 °F /  11.5 °C 30.3 in /  1027.0 hPa NE 1 mph /  1.6 km/h 6 mph /  9.7 km/h 80 % 0 in /  0.0 mm
03:22 58.8 °F /  14.9 °C 52.7 °F /  11.5 °C 30.3 in /  1027.0 hPa NNE 2 mph /  3.2 km/h 6 mph /  9.7 km/h 80 % 0 in /  0.0 mm
03:27 58.6 °F /  14.8 °C 52.9 °F /  11.6 °C 30.3 in /  1027.0 hPa North 5 mph /  8.0 km/h 6 mph /  9.7 km/h 81 % 0 in /  0.0 mm
03:32 58.5 °F /  14.7 °C 52.7 °F /  11.5 °C 30.3 in /  1027.0 hPa North 1 mph /  1.6 km/h 6 mph /  9.7 km/h 81 % 0 in /  0.0 mm
03:37 58.3 °F /  14.6 °C 52.5 °F /  11.4 °C 30.3 in /  1027.0 hPa North 1 mph /  1.6 km/h 6 mph /  9.7 km/h 81 % 0 in /  0.0 mm
03:42 57.9 °F /  14.4 °C 52.5 °F /  11.4 °C 30.3 in /  1027.3 hPa NNE 3 mph /  4.8 km/h 6 mph /  9.7 km/h 82 % 0 in /  0.0 mm
03:47 57.7 °F /  14.3 °C 52.3 °F /  11.3 °C 30.3 in /  1027.0 hPa North 2 mph /  3.2 km/h 5 mph /  8.0 km/h 82 % 0 in /  0.0 mm
03:52 57.4 °F /  14.1 °C 52.3 °F /  11.3 °C 30.3 in /  1027.3 hPa North 2 mph /  3.2 km/h 5 mph /  8.0 km/h 83 % 0 in /  0.0 mm
03:57 57.4 °F /  14.1 °C 52.3 °F /  11.3 °C 30.3 in /  1027.3 hPa North 1 mph /  1.6 km/h 5 mph /  8.0 km/h 83 % 0 in /  0.0 mm
04:02 57 °F /  13.9 °C 52.2 °F /  11.2 °C 30.3 in /  1027.0 hPa NW 1 mph /  1.6 km/h 6 mph /  9.7 km/h 84 % 0 in /  0.0 mm
04:07 57.2 °F /  14.0 °C 52.2 °F /  11.2 °C 30.3 in /  1027.3 hPa NNE 4 mph /  6.4 km/h 6 mph /  9.7 km/h 83 % 0 in /  0.0 mm
04:12 57 °F /  13.9 °C 52 °F /  11.1 °C 30.3 in /  1027.3 hPa NE 1 mph /  1.6 km/h 6 mph /  9.7 km/h 83 % 0 in /  0.0 mm
04:17 56.7 °F /  13.7 °C 51.8 °F /  11.0 °C 30.3 in /  1027.3 hPa NNE 2 mph /  3.2 km/h 4 mph /  6.4 km/h 84 % 0 in /  0.0 mm
04:22 56.5 °F /  13.6 °C 51.6 °F /  10.9 °C 30.3 in /  1027.3 hPa NNE 2 mph /  3.2 km/h 4 mph /  6.4 km/h 84 % 0 in /  0.0 mm
04:27 56.5 °F /  13.6 °C 52 °F /  11.1 °C 30.3 in /  1027.3 hPa NNE 3 mph /  4.8 km/h 4 mph /  6.4 km/h 85 % 0 in /  0.0 mm
04:32 56.7 °F /  13.7 °C 51.8 °F /  11.0 °C 30.3 in /  1027.3 hPa NNW 4 mph /  6.4 km/h 7 mph /  11.3 km/h 84 % 0 in /  0.0 mm
04:37 56.7 °F /  13.7 °C 51.8 °F /  11.0 °C 30.3 in /  1027.3 hPa North 3 mph /  4.8 km/h 7 mph /  11.3 km/h 84 % 0 in /  0.0 mm
04:42 56.7 °F /  13.7 °C 51.8 °F /  11.0 °C 30.3 in /  1027.3 hPa NNE 1 mph /  1.6 km/h 7 mph /  11.3 km/h 84 % 0 in /  0.0 mm
04:47 56.5 °F /  13.6 °C 51.4 °F /  10.8 °C 30.3 in /  1027.3 hPa NE 3 mph /  4.8 km/h 7 mph /  11.3 km/h 83 % 0 in /  0.0 mm
04:52 56.5 °F /  13.6 °C 51.6 °F /  10.9 °C 30.3 in /  1027.3 hPa NNW 2 mph /  3.2 km/h 7 mph /  11.3 km/h 84 % 0 in /  0.0 mm
04:57 56.5 °F /  13.6 °C 51.6 °F /  10.9 °C 30.3 in /  1027.3 hPa NW 1 mph /  1.6 km/h 6 mph /  9.7 km/h 84 % 0 in /  0.0 mm
05:02 56.3 °F /  13.5 °C 51.4 °F /  10.8 °C 30.3 in /  1027.3 hPa NNW 2 mph /  3.2 km/h 6 mph /  9.7 km/h 84 % 0 in /  0.0 mm
05:12 56.1 °F /  13.4 °C 51.4 °F /  10.8 °C 30.3 in /  1027.3 hPa NE 1 mph /  1.6 km/h 5 mph /  8.0 km/h 84 % 0 in /  0.0 mm
05:17 55.9 °F /  13.3 °C 51.3 °F /  10.7 °C 30.3 in /  1027.3 hPa NNE 2 mph /  3.2 km/h 4 mph /  6.4 km/h 84 % 0 in /  0.0 mm
05:22 55.8 °F /  13.2 °C 51.1 °F /  10.6 °C 30.4 in /  1027.7 hPa NE 1 mph /  1.6 km/h 4 mph /  6.4 km/h 84 % 0 in /  0.0 mm
05:27 55.6 °F /  13.1 °C 51.1 °F /  10.6 °C 30.4 in /  1027.7 hPa NNW 1 mph /  1.6 km/h 4 mph /  6.4 km/h 85 % 0 in /  0.0 mm
05:32 55.6 °F /  13.1 °C 50.9 °F /  10.5 °C 30.4 in /  1027.7 hPa NNE 1 mph /  1.6 km/h 4 mph /  6.4 km/h 84 % 0 in /  0.0 mm
05:42 55 °F /  12.8 °C 50.5 °F /  10.3 °C 30.4 in /  1027.7 hPa NE 2 mph /  3.2 km/h 5 mph /  8.0 km/h 85 % 0 in /  0.0 mm
05:52 54.9 °F /  12.7 °C 50.4 °F /  10.2 °C 30.4 in /  1027.7 hPa NNE 3 mph /  4.8 km/h 4 mph /  6.4 km/h 85 % 0 in /  0.0 mm
06:02 54.7 °F /  12.6 °C 50.2 °F /  10.1 °C 30.4 in /  1027.7 hPa NNE 3 mph /  4.8 km/h 4 mph /  6.4 km/h 85 % 0 in /  0.0 mm
06:12 54.5 °F /  12.5 °C 50.4 °F /  10.2 °C 30.4 in /  1027.7 hPa NNE 1 mph /  1.6 km/h 4 mph /  6.4 km/h 86 % 0 in /  0.0 mm
06:17 54.7 °F /  12.6 °C 50.5 °F /  10.3 °C 30.4 in /  1028.0 hPa North 2 mph /  3.2 km/h 3 mph /  4.8 km/h 86 % 0 in /  0.0 mm
06:22 54.5 °F /  12.5 °C 50.4 °F /  10.2 °C 30.4 in /  1027.7 hPa NNE 2 mph /  3.2 km/h 3 mph /  4.8 km/h 86 % 0 in /  0.0 mm
06:32 54.7 °F /  12.6 °C 50.5 °F /  10.3 °C 30.4 in /  1027.7 hPa NE 1 mph /  1.6 km/h 3 mph /  4.8 km/h 86 % 0 in /  0.0 mm
06:42 55.6 °F /  13.1 °C 51.1 °F /  10.6 °C 30.4 in /  1027.7 hPa NNE 3 mph /  4.8 km/h 3 mph /  4.8 km/h 85 % 0 in /  0.0 mm
06:47 55.9 °F /  13.3 °C 51.3 °F /  10.7 °C 30.4 in /  1027.7 hPa NNW 3 mph /  4.8 km/h 4 mph /  6.4 km/h 84 % 0 in /  0.0 mm
06:57 56.5 °F /  13.6 °C 51.4 °F /  10.8 °C 30.4 in /  1027.7 hPa NNE 2 mph /  3.2 km/h 6 mph /  9.7 km/h 83 % 0 in /  0.0 mm
07:02 56.8 °F /  13.8 °C 51.8 °F /  11.0 °C 30.4 in /  1028.0 hPa NNE 1 mph /  1.6 km/h 6 mph /  9.7 km/h 83 % 0 in /  0.0 mm
07:12 57.6 °F /  14.2 °C 52.2 °F /  11.2 °C 30.4 in /  1028.0 hPa NE 2 mph /  3.2 km/h 6 mph /  9.7 km/h 82 % 0 in /  0.0 mm
07:17 57.9 °F /  14.4 °C 52.2 °F /  11.2 °C 30.4 in /  1028.0 hPa NE 2 mph /  3.2 km/h 5 mph /  8.0 km/h 81 % 0 in /  0.0 mm
07:22 58.3 °F /  14.6 °C 52.5 °F /  11.4 °C 30.4 in /  1028.0 hPa NNE 1 mph /  1.6 km/h 5 mph /  8.0 km/h 81 % 0 in /  0.0 mm
07:42 59.7 °F /  15.4 °C 52.9 °F /  11.6 °C 30.4 in /  1028.0 hPa NNE 2 mph /  3.2 km/h 5 mph /  8.0 km/h 78 % 0 in /  0.0 mm
07:52 60.1 °F /  15.6 °C 52.9 °F /  11.6 °C 30.4 in /  1028.0 hPa NE 3 mph /  4.8 km/h 6 mph /  9.7 km/h 77 % 0 in /  0.0 mm
07:57 60.4 °F /  15.8 °C 52.9 °F /  11.6 °C 30.4 in /  1028.3 hPa NNE 6 mph /  9.7 km/h 6 mph /  9.7 km/h 76 % 0 in /  0.0 mm
08:02 60.6 °F /  15.9 °C 53.1 °F /  11.7 °C 30.4 in /  1028.0 hPa NE 1 mph /  1.6 km/h 6 mph /  9.7 km/h 76 % 0 in /  0.0 mm
08:12 61.2 °F /  16.2 °C 52.5 °F /  11.4 °C 30.4 in /  1028.3 hPa NE 4 mph /  6.4 km/h 6 mph /  9.7 km/h 73 % 0 in /  0.0 mm
08:17 61.7 °F /  16.5 °C 53.2 °F /  11.8 °C 30.4 in /  1028.3 hPa NE 5 mph /  8.0 km/h 7 mph /  11.3 km/h 74 % 0 in /  0.0 mm
08:22 61.9 °F /  16.6 °C 53.1 °F /  11.7 °C 30.4 in /  1028.3 hPa NE 2 mph /  3.2 km/h 7 mph /  11.3 km/h 73 % 0 in /  0.0 mm
08:32 61.9 °F /  16.6 °C 52.7 °F /  11.5 °C 30.4 in /  1028.3 hPa NE 4 mph /  6.4 km/h 6 mph /  9.7 km/h 72 % 0 in /  0.0 mm
08:42 62.1 °F /  16.7 °C 52.9 °F /  11.6 °C 30.4 in /  1028.3 hPa East 4 mph /  6.4 km/h 11 mph /  17.7 km/h 72 % 0 in /  0.0 mm
08:47 62.4 °F /  16.9 °C 53.6 °F /  12.0 °C 30.4 in /  1028.3 hPa ENE 4 mph /  6.4 km/h 11 mph /  17.7 km/h 73 % 0 in /  0.0 mm
08:52 62.4 °F /  16.9 °C 53.2 °F /  11.8 °C 30.4 in /  1028.3 hPa ENE 3 mph /  4.8 km/h 11 mph /  17.7 km/h 72 % 0 in /  0.0 mm
08:57 62.4 °F /  16.9 °C 53.2 °F /  11.8 °C 30.4 in /  1028.3 hPa East 7 mph /  11.3 km/h 10 mph /  16.1 km/h 72 % 0 in /  0.0 mm
09:02 62.8 °F /  17.1 °C 53.6 °F /  12.0 °C 30.4 in /  1028.3 hPa NNE 6 mph /  9.7 km/h 11 mph /  17.7 km/h 72 % 0 in /  0.0 mm
09:07 62.8 °F /  17.1 °C 53.2 °F /  11.8 °C 30.4 in /  1028.3 hPa ENE 6 mph /  9.7 km/h 11 mph /  17.7 km/h 71 % 0 in /  0.0 mm
09:12 63.1 °F /  17.3 °C 54 °F /  12.2 °C 30.4 in /  1028.3 hPa NE 5 mph /  8.0 km/h 11 mph /  17.7 km/h 72 % 0 in /  0.0 mm
09:17 63.3 °F /  17.4 °C 53.4 °F /  11.9 °C 30.4 in /  1028.3 hPa East 4 mph /  6.4 km/h 11 mph /  17.7 km/h 70 % 0 in /  0.0 mm
09:22 63.7 °F /  17.6 °C 53.8 °F /  12.1 °C 30.4 in /  1028.3 hPa East 5 mph /  8.0 km/h 11 mph /  17.7 km/h 70 % 0 in /  0.0 mm
09:32 64.4 °F /  18.0 °C 52.9 °F /  11.6 °C 30.4 in /  1028.3 hPa ENE 9 mph /  14.5 km/h 10 mph /  16.1 km/h 66 % 0 in /  0.0 mm
09:42 64.9 °F /  18.3 °C 52.9 °F /  11.6 °C 30.4 in /  1028.7 hPa ENE 3 mph /  4.8 km/h 12 mph /  19.3 km/h 65 % 0 in /  0.0 mm
09:52 65.1 °F /  18.4 °C 52.7 °F /  11.5 °C 30.4 in /  1028.3 hPa ENE 3 mph /  4.8 km/h 13 mph /  20.9 km/h 64 % 0 in /  0.0 mm
09:57 65.5 °F /  18.6 °C 52.2 °F /  11.2 °C 30.4 in /  1028.3 hPa NE 5 mph /  8.0 km/h 13 mph /  20.9 km/h 62 % 0 in /  0.0 mm
10:02 65.7 °F /  18.7 °C 52.7 °F /  11.5 °C 30.4 in /  1028.3 hPa NE 6 mph /  9.7 km/h 13 mph /  20.9 km/h 63 % 0 in /  0.0 mm
10:12 66 °F /  18.9 °C 51.8 °F /  11.0 °C 30.4 in /  1028.3 hPa ENE 8 mph /  12.9 km/h 12 mph /  19.3 km/h 60 % 0 in /  0.0 mm
10:17 66.4 °F /  19.1 °C 52.5 °F /  11.4 °C 30.4 in /  1028.3 hPa NE 6 mph /  9.7 km/h 13 mph /  20.9 km/h 61 % 0 in /  0.0 mm
10:22 66.6 °F /  19.2 °C 52.2 °F /  11.2 °C 30.4 in /  1028.3 hPa ENE 5 mph /  8.0 km/h 15 mph /  24.1 km/h 60 % 0 in /  0.0 mm
10:32 67.5 °F /  19.7 °C 52.7 °F /  11.5 °C 30.4 in /  1028.3 hPa NE 9 mph /  14.5 km/h 15 mph /  24.1 km/h 59 % 0 in /  0.0 mm
10:42 67.5 °F /  19.7 °C 52.7 °F /  11.5 °C 30.4 in /  1028.3 hPa ENE 9 mph /  14.5 km/h 14 mph /  22.5 km/h 59 % 0 in /  0.0 mm
10:47 67.6 °F /  19.8 °C 52.3 °F /  11.3 °C 30.4 in /  1028.3 hPa East 4 mph /  6.4 km/h 15 mph /  24.1 km/h 58 % 0 in /  0.0 mm
10:52 68.2 °F /  20.1 °C 52.9 °F /  11.6 °C 30.4 in /  1028.3 hPa NNE 12 mph /  19.3 km/h 15 mph /  24.1 km/h 58 % 0 in /  0.0 mm
11:02 68.2 °F /  20.1 °C 52.9 °F /  11.6 °C 30.4 in /  1028.0 hPa NE 8 mph /  12.9 km/h 12 mph /  19.3 km/h 58 % 0 in /  0.0 mm
11:12 68.7 °F /  20.4 °C 52.9 °F /  11.6 °C 30.4 in /  1028.0 hPa NE 10 mph /  16.1 km/h 13 mph /  20.9 km/h 57 % 0 in /  0.0 mm
11:17 68.7 °F /  20.4 °C 52.3 °F /  11.3 °C 30.4 in /  1028.0 hPa NE 4 mph /  6.4 km/h 14 mph /  22.5 km/h 56 % 0 in /  0.0 mm
11:22 68.9 °F /  20.5 °C 52.5 °F /  11.4 °C 30.4 in /  1028.0 hPa ENE 7 mph /  11.3 km/h 17 mph /  27.4 km/h 56 % 0 in /  0.0 mm
11:32 69.8 °F /  21.0 °C 53.4 °F /  11.9 °C 30.4 in /  1028.0 hPa NNE 9 mph /  14.5 km/h 17 mph /  27.4 km/h 56 % 0 in /  0.0 mm
11:42 69.8 °F /  21.0 °C 52.9 °F /  11.6 °C 30.4 in /  1028.0 hPa NNE 11 mph /  17.7 km/h 16 mph /  25.7 km/h 55 % 0 in /  0.0 mm
11:47 69.4 °F /  20.8 °C 52.2 °F /  11.2 °C 30.4 in /  1027.7 hPa ENE 12 mph /  19.3 km/h 17 mph /  27.4 km/h 54 % 0 in /  0.0 mm
11:52 70 °F /  21.1 °C 53.1 °F /  11.7 °C 30.4 in /  1027.7 hPa NNW 4 mph /  6.4 km/h 17 mph /  27.4 km/h 55 % 0 in /  0.0 mm
12:02 70.7 °F /  21.5 °C 52.7 °F /  11.5 °C 30.4 in /  1027.7 hPa ENE 8 mph /  12.9 km/h 17 mph /  27.4 km/h 53 % 0 in /  0.0 mm
12:12 71.2 °F /  21.8 °C 53.2 °F /  11.8 °C 30.4 in /  1027.7 hPa NNE 6 mph /  9.7 km/h 17 mph /  27.4 km/h 53 % 0 in /  0.0 mm
12:17 71.4 °F /  21.9 °C 52.9 °F /  11.6 °C 30.4 in /  1027.7 hPa NE 9 mph /  14.5 km/h 15 mph /  24.1 km/h 52 % 0 in /  0.0 mm
12:22 71.8 °F /  22.1 °C 53.2 °F /  11.8 °C 30.4 in /  1027.7 hPa ENE 8 mph /  12.9 km/h 15 mph /  24.1 km/h 52 % 0 in /  0.0 mm
12:32 72 °F /  22.2 °C 53.4 °F /  11.9 °C 30.4 in /  1027.7 hPa North 10 mph /  16.1 km/h 15 mph /  24.1 km/h 52 % 0 in /  0.0 mm
12:42 72.3 °F /  22.4 °C 54.1 °F /  12.3 °C 30.4 in /  1027.7 hPa North 5 mph /  8.0 km/h 14 mph /  22.5 km/h 53 % 0 in /  0.0 mm
12:52 72.3 °F /  22.4 °C 53.2 °F /  11.8 °C 30.3 in /  1027.3 hPa NE 4 mph /  6.4 km/h 16 mph /  25.7 km/h 51 % 0 in /  0.0 mm
12:57 72.7 °F /  22.6 °C 53.4 °F /  11.9 °C 30.4 in /  1027.7 hPa East 8 mph /  12.9 km/h 16 mph /  25.7 km/h 51 % 0 in /  0.0 mm
13:02 73.2 °F /  22.9 °C 54 °F /  12.2 °C 30.4 in /  1027.7 hPa North 8 mph /  12.9 km/h 14 mph /  22.5 km/h 51 % 0 in /  0.0 mm
13:07 73.2 °F /  22.9 °C 53.4 °F /  11.9 °C 30.3 in /  1027.3 hPa NNW 8 mph /  12.9 km/h 14 mph /  22.5 km/h 50 % 0 in /  0.0 mm
13:12 72.7 °F /  22.6 °C 52.9 °F /  11.6 °C 30.3 in /  1027.3 hPa ENE 10 mph /  16.1 km/h 19 mph /  30.6 km/h 50 % 0 in /  0.0 mm
13:17 72.7 °F /  22.6 °C 52.9 °F /  11.6 °C 30.3 in /  1027.3 hPa NE 2 mph /  3.2 km/h 19 mph /  30.6 km/h 50 % 0 in /  0.0 mm
13:22 72.9 °F /  22.7 °C 53.1 °F /  11.7 °C 30.3 in /  1027.3 hPa NE 5 mph /  8.0 km/h 19 mph /  30.6 km/h 50 % 0 in /  0.0 mm
13:32 73.8 °F /  23.2 °C 53.4 °F /  11.9 °C 30.3 in /  1027.0 hPa NNW 3 mph /  4.8 km/h 19 mph /  30.6 km/h 49 % 0 in /  0.0 mm
13:37 74.1 °F /  23.4 °C 52.5 °F /  11.4 °C 30.3 in /  1027.0 hPa NE 9 mph /  14.5 km/h 19 mph /  30.6 km/h 47 % 0 in /  0.0 mm
13:42 73.9 °F /  23.3 °C 53.1 °F /  11.7 °C 30.3 in /  1027.0 hPa NNE 13 mph /  20.9 km/h 15 mph /  24.1 km/h 48 % 0 in /  0.0 mm
13:47 74.1 °F /  23.4 °C 53.2 °F /  11.8 °C 30.3 in /  1027.0 hPa NNE 7 mph /  11.3 km/h 16 mph /  25.7 km/h 48 % 0 in /  0.0 mm
13:52 74.1 °F /  23.4 °C 53.8 °F /  12.1 °C 30.3 in /  1027.0 hPa NE 10 mph /  16.1 km/h 16 mph /  25.7 km/h 49 % 0 in /  0.0 mm
13:57 74.7 °F /  23.7 °C 53.6 °F /  12.0 °C 30.3 in /  1027.0 hPa ENE 4 mph /  6.4 km/h 16 mph /  25.7 km/h 48 % 0 in /  0.0 mm
14:02 75 °F /  23.9 °C 53.4 °F /  11.9 °C 30.3 in /  1027.0 hPa NE 12 mph /  19.3 km/h 16 mph /  25.7 km/h 47 % 0 in /  0.0 mm
14:07 75 °F /  23.9 °C 54 °F /  12.2 °C 30.3 in /  1026.6 hPa NNE 6 mph /  9.7 km/h 16 mph /  25.7 km/h 48 % 0 in /  0.0 mm
14:12 75.6 °F /  24.2 °C 55 °F /  12.8 °C 30.3 in /  1026.6 hPa NE 6 mph /  9.7 km/h 17 mph /  27.4 km/h 49 % 0 in /  0.0 mm
14:17 75.9 °F /  24.4 °C 54.3 °F /  12.4 °C 30.3 in /  1026.6 hPa NE 15 mph /  24.1 km/h 17 mph /  27.4 km/h 47 % 0 in /  0.0 mm
14:22 75.6 °F /  24.2 °C 55 °F /  12.8 °C 30.3 in /  1026.6 hPa NE 10 mph /  16.1 km/h 22 mph /  35.4 km/h 49 % 0 in /  0.0 mm
14:27 75.4 °F /  24.1 °C 54.9 °F /  12.7 °C 30.3 in /  1026.3 hPa ENE 13 mph /  20.9 km/h 22 mph /  35.4 km/h 49 % 0 in /  0.0 mm
14:32 75.7 °F /  24.3 °C 55.8 °F /  13.2 °C 30.3 in /  1026.3 hPa North 14 mph /  22.5 km/h 17 mph /  27.4 km/h 50 % 0 in /  0.0 mm
14:37 75.9 °F /  24.4 °C 55.9 °F /  13.3 °C 30.3 in /  1026.3 hPa NNW 8 mph /  12.9 km/h 17 mph /  27.4 km/h 50 % 0 in /  0.0 mm
14:42 76.1 °F /  24.5 °C 55.6 °F /  13.1 °C 30.3 in /  1026.3 hPa NE 10 mph /  16.1 km/h 17 mph /  27.4 km/h 49 % 0 in /  0.0 mm
14:47 75.9 °F /  24.4 °C 56.5 °F /  13.6 °C 30.3 in /  1026.3 hPa NE 9 mph /  14.5 km/h 17 mph /  27.4 km/h 51 % 0 in /  0.0 mm
14:52 76.3 °F /  24.6 °C 56.8 °F /  13.8 °C 30.3 in /  1026.3 hPa ENE 9 mph /  14.5 km/h 16 mph /  25.7 km/h 51 % 0 in /  0.0 mm
14:57 76.8 °F /  24.9 °C 57.4 °F /  14.1 °C 30.3 in /  1026.3 hPa East 7 mph /  11.3 km/h 17 mph /  27.4 km/h 51 % 0 in /  0.0 mm
15:02 76.6 °F /  24.8 °C 57.2 °F /  14.0 °C 30.3 in /  1026.0 hPa NE 9 mph /  14.5 km/h 17 mph /  27.4 km/h 51 % 0 in /  0.0 mm
15:07 76.8 °F /  24.9 °C 56.8 °F /  13.8 °C 30.3 in /  1026.0 hPa ENE 7 mph /  11.3 km/h 17 mph /  27.4 km/h 50 % 0 in /  0.0 mm
15:12 77.2 °F /  25.1 °C 57.7 °F /  14.3 °C 30.3 in /  1026.0 hPa NNE 9 mph /  14.5 km/h 17 mph /  27.4 km/h 51 % 0 in /  0.0 mm
15:22 76.8 °F /  24.9 °C 56.8 °F /  13.8 °C 30.3 in /  1026.0 hPa ENE 9 mph /  14.5 km/h 18 mph /  29.0 km/h 50 % 0 in /  0.0 mm
15:27 76.8 °F /  24.9 °C 57.9 °F /  14.4 °C 30.3 in /  1026.0 hPa East 6 mph /  9.7 km/h 18 mph /  29.0 km/h 52 % 0 in /  0.0 mm
15:32 77.2 °F /  25.1 °C 57.7 °F /  14.3 °C 30.3 in /  1026.0 hPa ENE 13 mph /  20.9 km/h 17 mph /  27.4 km/h 51 % 0 in /  0.0 mm
15:37 77.2 °F /  25.1 °C 57.7 °F /  14.3 °C 30.3 in /  1026.0 hPa NNW 9 mph /  14.5 km/h 17 mph /  27.4 km/h 51 % 0 in /  0.0 mm
15:42 76.8 °F /  24.9 °C 57.4 °F /  14.1 °C 30.3 in /  1025.6 hPa NE 7 mph /  11.3 km/h 22 mph /  35.4 km/h 51 % 0 in /  0.0 mm
15:47 77 °F /  25.0 °C 57.6 °F /  14.2 °C 30.3 in /  1025.6 hPa NE 7 mph /  11.3 km/h 22 mph /  35.4 km/h 51 % 0 in /  0.0 mm
15:52 77.4 °F /  25.2 °C 57.2 °F /  14.0 °C 30.3 in /  1025.6 hPa ENE 16 mph /  25.7 km/h 22 mph /  35.4 km/h 50 % 0 in /  0.0 mm
15:57 77.2 °F /  25.1 °C 57.7 °F /  14.3 °C 30.3 in /  1026.0 hPa NE 11 mph /  17.7 km/h 20 mph /  32.2 km/h 51 % 0 in /  0.0 mm
16:02 77.5 °F /  25.3 °C 57.9 °F /  14.4 °C 30.3 in /  1026.0 hPa ENE 14 mph /  22.5 km/h 21 mph /  33.8 km/h 51 % 0 in /  0.0 mm
16:07 77.4 °F /  25.2 °C 57.7 °F /  14.3 °C 30.3 in /  1026.0 hPa ENE 11 mph /  17.7 km/h 21 mph /  33.8 km/h 51 % 0 in /  0.0 mm
16:12 77.4 °F /  25.2 °C 57.7 °F /  14.3 °C 30.3 in /  1026.0 hPa NE 10 mph /  16.1 km/h 21 mph /  33.8 km/h 51 % 0 in /  0.0 mm
16:17 77.2 °F /  25.1 °C 57.7 °F /  14.3 °C 30.3 in /  1026.0 hPa NE 7 mph /  11.3 km/h 20 mph /  32.2 km/h 51 % 0 in /  0.0 mm
16:22 77.5 °F /  25.3 °C 58.5 °F /  14.7 °C 30.3 in /  1025.6 hPa ENE 10 mph /  16.1 km/h 20 mph /  32.2 km/h 52 % 0 in /  0.0 mm
16:27 78.4 °F /  25.8 °C 58.8 °F /  14.9 °C 30.3 in /  1025.6 hPa ENE 11 mph /  17.7 km/h 20 mph /  32.2 km/h 51 % 0 in /  0.0 mm
16:32 78.4 °F /  25.8 °C 57.7 °F /  14.3 °C 30.3 in /  1025.6 hPa ENE 14 mph /  22.5 km/h 16 mph /  25.7 km/h 49 % 0 in /  0.0 mm
16:37 77.7 °F /  25.4 °C 57.6 °F /  14.2 °C 30.3 in /  1025.6 hPa East 10 mph /  16.1 km/h 19 mph /  30.6 km/h 50 % 0 in /  0.0 mm
16:42 77.7 °F /  25.4 °C 57.6 °F /  14.2 °C 30.3 in /  1025.3 hPa ENE 11 mph /  17.7 km/h 19 mph /  30.6 km/h 50 % 0 in /  0.0 mm
16:47 77.9 °F /  25.5 °C 57.7 °F /  14.3 °C 30.3 in /  1025.6 hPa ENE 16 mph /  25.7 km/h 21 mph /  33.8 km/h 50 % 0 in /  0.0 mm
16:52 78.3 °F /  25.7 °C 58.6 °F /  14.8 °C 30.3 in /  1025.6 hPa NNE 10 mph /  16.1 km/h 21 mph /  33.8 km/h 51 % 0 in /  0.0 mm
16:57 77.9 °F /  25.5 °C 58.3 °F /  14.6 °C 30.3 in /  1025.3 hPa North 9 mph /  14.5 km/h 22 mph /  35.4 km/h 51 % 0 in /  0.0 mm
17:02 77.7 °F /  25.4 °C 58.1 °F /  14.5 °C 30.3 in /  1025.3 hPa North 7 mph /  11.3 km/h 22 mph /  35.4 km/h 51 % 0 in /  0.0 mm
17:07 77.7 °F /  25.4 °C 57.6 °F /  14.2 °C 30.3 in /  1025.3 hPa NNW 6 mph /  9.7 km/h 22 mph /  35.4 km/h 50 % 0 in /  0.0 mm
17:12 77.5 °F /  25.3 °C 57.9 °F /  14.4 °C 30.3 in /  1025.3 hPa NE 9 mph /  14.5 km/h 20 mph /  32.2 km/h 51 % 0 in /  0.0 mm
17:17 77.7 °F /  25.4 °C 58.1 °F /  14.5 °C 30.3 in /  1024.9 hPa NE 6 mph /  9.7 km/h 19 mph /  30.6 km/h 51 % 0 in /  0.0 mm
17:22 77.7 °F /  25.4 °C 58.1 °F /  14.5 °C 30.3 in /  1024.9 hPa NE 9 mph /  14.5 km/h 19 mph /  30.6 km/h 51 % 0 in /  0.0 mm
17:27 77.7 °F /  25.4 °C 57.6 °F /  14.2 °C 30.3 in /  1024.9 hPa NE 6 mph /  9.7 km/h 20 mph /  32.2 km/h 50 % 0 in /  0.0 mm
17:32 77.5 °F /  25.3 °C 58.5 °F /  14.7 °C 30.3 in /  1024.9 hPa NE 13 mph /  20.9 km/h 20 mph /  32.2 km/h 52 % 0 in /  0.0 mm
17:37 77.5 °F /  25.3 °C 57.9 °F /  14.4 °C 30.3 in /  1024.9 hPa NNE 9 mph /  14.5 km/h 19 mph /  30.6 km/h 51 % 0 in /  0.0 mm
17:42 77.5 °F /  25.3 °C 58.5 °F /  14.7 °C 30.3 in /  1024.9 hPa NE 12 mph /  19.3 km/h 18 mph /  29.0 km/h 52 % 0 in /  0.0 mm
17:47 77.4 °F /  25.2 °C 58.3 °F /  14.6 °C 30.3 in /  1024.9 hPa NE 9 mph /  14.5 km/h 21 mph /  33.8 km/h 52 % 0 in /  0.0 mm
17:52 77.4 °F /  25.2 °C 58.8 °F /  14.9 °C 30.3 in /  1024.9 hPa NNW 8 mph /  12.9 km/h 21 mph /  33.8 km/h 53 % 0 in /  0.0 mm
17:57 77.7 °F /  25.4 °C 58.1 °F /  14.5 °C 30.3 in /  1024.9 hPa NE 20 mph /  32.2 km/h 21 mph /  33.8 km/h 51 % 0 in /  0.0 mm
18:02 77.7 °F /  25.4 °C 58.1 °F /  14.5 °C 30.3 in /  1024.9 hPa NNE 14 mph /  22.5 km/h 20 mph /  32.2 km/h 51 % 0 in /  0.0 mm
18:07 77.7 °F /  25.4 °C 58.6 °F /  14.8 °C 30.3 in /  1024.6 hPa NNE 6 mph /  9.7 km/h 20 mph /  32.2 km/h 52 % 0 in /  0.0 mm
18:12 77.7 °F /  25.4 °C 58.1 °F /  14.5 °C 30.3 in /  1024.9 hPa NNE 10 mph /  16.1 km/h 20 mph /  32.2 km/h 51 % 0 in /  0.0 mm
18:17 77.9 °F /  25.5 °C 58.8 °F /  14.9 °C 30.3 in /  1024.6 hPa NE 13 mph /  20.9 km/h 20 mph /  32.2 km/h 52 % 0 in /  0.0 mm
18:22 77.5 °F /  25.3 °C 57.9 °F /  14.4 °C 30.3 in /  1024.9 hPa NE 13 mph /  20.9 km/h 18 mph /  29.0 km/h 51 % 0 in /  0.0 mm
18:32 77.4 °F /  25.2 °C 58.8 °F /  14.9 °C 30.3 in /  1024.6 hPa NNE 9 mph /  14.5 km/h 18 mph /  29.0 km/h 53 % 0 in /  0.0 mm
18:42 77.7 °F /  25.4 °C 59.2 °F /  15.1 °C 30.3 in /  1024.6 hPa NNE 11 mph /  17.7 km/h 18 mph /  29.0 km/h 53 % 0 in /  0.0 mm
18:52 77.2 °F /  25.1 °C 58.3 °F /  14.6 °C 30.3 in /  1024.6 hPa ENE 7 mph /  11.3 km/h 18 mph /  29.0 km/h 52 % 0 in /  0.0 mm
18:57 76.8 °F /  24.9 °C 57.9 °F /  14.4 °C 30.3 in /  1024.6 hPa NE 8 mph /  12.9 km/h 21 mph /  33.8 km/h 52 % 0 in /  0.0 mm
19:02 76.8 °F /  24.9 °C 58.5 °F /  14.7 °C 30.3 in /  1024.6 hPa North 9 mph /  14.5 km/h 21 mph /  33.8 km/h 53 % 0 in /  0.0 mm
19:07 76.8 °F /  24.9 °C 58.5 °F /  14.7 °C 30.3 in /  1024.6 hPa ENE 9 mph /  14.5 km/h 19 mph /  30.6 km/h 53 % 0 in /  0.0 mm
19:12 76.8 °F /  24.9 °C 57.9 °F /  14.4 °C 30.3 in /  1024.6 hPa ENE 10 mph /  16.1 km/h 18 mph /  29.0 km/h 52 % 0 in /  0.0 mm
19:17 76.5 °F /  24.7 °C 58.1 °F /  14.5 °C 30.3 in /  1024.6 hPa NE 9 mph /  14.5 km/h 18 mph /  29.0 km/h 53 % 0 in /  0.0 mm
19:22 76.5 °F /  24.7 °C 58.1 °F /  14.5 °C 30.3 in /  1024.6 hPa NNE 7 mph /  11.3 km/h 17 mph /  27.4 km/h 53 % 0 in /  0.0 mm
19:32 76.3 °F /  24.6 °C 58.5 °F /  14.7 °C 30.3 in /  1024.6 hPa NE 8 mph /  12.9 km/h 20 mph /  32.2 km/h 54 % 0 in /  0.0 mm
19:42 75.7 °F /  24.3 °C 57.4 °F /  14.1 °C 30.3 in /  1024.6 hPa ENE 7 mph /  11.3 km/h 20 mph /  32.2 km/h 53 % 0 in /  0.0 mm
19:47 75.7 °F /  24.3 °C 57.9 °F /  14.4 °C 30.3 in /  1024.6 hPa NE 11 mph /  17.7 km/h 20 mph /  32.2 km/h 54 % 0 in /  0.0 mm
19:52 75.6 °F /  24.2 °C 57.7 °F /  14.3 °C 30.3 in /  1024.3 hPa NE 9 mph /  14.5 km/h 20 mph /  32.2 km/h 54 % 0 in /  0.0 mm
19:57 75.4 °F /  24.1 °C 58.1 °F /  14.5 °C 30.3 in /  1024.3 hPa West 6 mph /  9.7 km/h 21 mph /  33.8 km/h 55 % 0 in /  0.0 mm
20:02 75.2 °F /  24.0 °C 57.9 °F /  14.4 °C 30.3 in /  1024.6 hPa NE 14 mph /  22.5 km/h 21 mph /  33.8 km/h 55 % 0 in /  0.0 mm
20:12 75.2 °F /  24.0 °C 58.5 °F /  14.7 °C 30.3 in /  1024.6 hPa NNE 8 mph /  12.9 km/h 15 mph /  24.1 km/h 56 % 0 in /  0.0 mm
20:17 74.8 °F /  23.8 °C 58.1 °F /  14.5 °C 30.3 in /  1024.6 hPa NE 15 mph /  24.1 km/h 15 mph /  24.1 km/h 56 % 0 in /  0.0 mm
20:22 74.8 °F /  23.8 °C 58.1 °F /  14.5 °C 30.3 in /  1024.6 hPa NE 7 mph /  11.3 km/h 17 mph /  27.4 km/h 56 % 0 in /  0.0 mm
20:27 74.7 °F /  23.7 °C 57.9 °F /  14.4 °C 30.3 in /  1024.3 hPa NNE 8 mph /  12.9 km/h 17 mph /  27.4 km/h 56 % 0 in /  0.0 mm
20:32 74.5 °F /  23.6 °C 57.7 °F /  14.3 °C 30.3 in /  1024.6 hPa NE 7 mph /  11.3 km/h 16 mph /  25.7 km/h 56 % 0 in /  0.0 mm
20:37 74.3 °F /  23.5 °C 57.6 °F /  14.2 °C 30.3 in /  1024.3 hPa NE 10 mph /  16.1 km/h 17 mph /  27.4 km/h 56 % 0 in /  0.0 mm
20:42 74.1 °F /  23.4 °C 57.9 °F /  14.4 °C 30.3 in /  1024.3 hPa NE 11 mph /  17.7 km/h 17 mph /  27.4 km/h 57 % 0 in /  0.0 mm
20:52 73.8 °F /  23.2 °C 58.1 °F /  14.5 °C 30.3 in /  1024.3 hPa ENE 7 mph /  11.3 km/h 17 mph /  27.4 km/h 58 % 0 in /  0.0 mm
20:57 73.6 °F /  23.1 °C 57.9 °F /  14.4 °C 30.3 in /  1024.3 hPa ENE 9 mph /  14.5 km/h 16 mph /  25.7 km/h 58 % 0 in /  0.0 mm
21:02 73.2 °F /  22.9 °C 58.1 °F /  14.5 °C 30.3 in /  1024.3 hPa NE 4 mph /  6.4 km/h 15 mph /  24.1 km/h 59 % 0 in /  0.0 mm
21:07 73 °F /  22.8 °C 57.9 °F /  14.4 °C 30.3 in /  1024.6 hPa NE 6 mph /  9.7 km/h 13 mph /  20.9 km/h 59 % 0 in /  0.0 mm
21:12 72.9 °F /  22.7 °C 57.7 °F /  14.3 °C 30.3 in /  1024.6 hPa NE 10 mph /  16.1 km/h 12 mph /  19.3 km/h 59 % 0 in /  0.0 mm
21:17 72.7 °F /  22.6 °C 57.9 °F /  14.4 °C 30.3 in /  1024.6 hPa NE 7 mph /  11.3 km/h 13 mph /  20.9 km/h 60 % 0 in /  0.0 mm
21:22 72.3 °F /  22.4 °C 57.7 °F /  14.3 °C 30.3 in /  1024.6 hPa NNE 8 mph /  12.9 km/h 14 mph /  22.5 km/h 60 % 0 in /  0.0 mm
21:27 72.1 °F /  22.3 °C 57.9 °F /  14.4 °C 30.3 in /  1024.6 hPa NNE 6 mph /  9.7 km/h 14 mph /  22.5 km/h 61 % 0 in /  0.0 mm
21:32 72 °F /  22.2 °C 58.3 °F /  14.6 °C 30.3 in /  1024.6 hPa NNE 7 mph /  11.3 km/h 14 mph /  22.5 km/h 62 % 0 in /  0.0 mm
21:37 71.8 °F /  22.1 °C 58.1 °F /  14.5 °C 30.3 in /  1024.6 hPa NNE 6 mph /  9.7 km/h 13 mph /  20.9 km/h 62 % 0 in /  0.0 mm
21:42 71.2 °F /  21.8 °C 57.9 °F /  14.4 °C 30.3 in /  1024.6 hPa ENE 5 mph /  8.0 km/h 12 mph /  19.3 km/h 63 % 0 in /  0.0 mm
21:52 70.3 °F /  21.3 °C 58.1 °F /  14.5 °C 30.3 in /  1024.6 hPa NNE 7 mph /  11.3 km/h 10 mph /  16.1 km/h 65 % 0 in /  0.0 mm
21:57 70.5 °F /  21.4 °C 58.1 °F /  14.5 °C 30.3 in /  1024.6 hPa NE 5 mph /  8.0 km/h 14 mph /  22.5 km/h 65 % 0 in /  0.0 mm
22:02 70.3 °F /  21.3 °C 58.1 °F /  14.5 °C 30.3 in /  1024.6 hPa North 3 mph /  4.8 km/h 14 mph /  22.5 km/h 65 % 0 in /  0.0 mm
22:12 70.2 °F /  21.2 °C 58.3 °F /  14.6 °C 30.3 in /  1024.6 hPa NE 9 mph /  14.5 km/h 13 mph /  20.9 km/h 66 % 0 in /  0.0 mm
22:17 70 °F /  21.1 °C 58.1 °F /  14.5 °C 30.3 in /  1024.6 hPa NE 7 mph /  11.3 km/h 13 mph /  20.9 km/h 66 % 0 in /  0.0 mm
22:22 69.6 °F /  20.9 °C 58.1 °F /  14.5 °C 30.3 in /  1024.6 hPa NE 8 mph /  12.9 km/h 16 mph /  25.7 km/h 67 % 0 in /  0.0 mm
22:27 69.6 °F /  20.9 °C 58.1 °F /  14.5 °C 30.3 in /  1024.6 hPa NNE 5 mph /  8.0 km/h 16 mph /  25.7 km/h 67 % 0 in /  0.0 mm
22:32 69.4 °F /  20.8 °C 57.9 °F /  14.4 °C 30.3 in /  1024.6 hPa ENE 10 mph /  16.1 km/h 16 mph /  25.7 km/h 67 % 0 in /  0.0 mm
22:37 69.4 °F /  20.8 °C 57.9 °F /  14.4 °C 30.3 in /  1024.6 hPa NE 6 mph /  9.7 km/h 15 mph /  24.1 km/h 67 % 0 in /  0.0 mm
22:42 69.3 °F /  20.7 °C 57.9 °F /  14.4 °C 30.3 in /  1024.6 hPa North 4 mph /  6.4 km/h 15 mph /  24.1 km/h 67 % 0 in /  0.0 mm
22:47 69.3 °F /  20.7 °C 57.9 °F /  14.4 °C 30.3 in /  1024.6 hPa NE 9 mph /  14.5 km/h 14 mph /  22.5 km/h 67 % 0 in /  0.0 mm
22:52 69.3 °F /  20.7 °C 58.3 °F /  14.6 °C 30.3 in /  1024.6 hPa NE 8 mph /  12.9 km/h 14 mph /  22.5 km/h 68 % 0 in /  0.0 mm
22:57 69.1 °F /  20.6 °C 58.1 °F /  14.5 °C 30.3 in /  1024.6 hPa NE 10 mph /  16.1 km/h 14 mph /  22.5 km/h 68 % 0 in /  0.0 mm
23:02 68.7 °F /  20.4 °C 57.7 °F /  14.3 °C 30.3 in /  1024.9 hPa NE 5 mph /  8.0 km/h 13 mph /  20.9 km/h 68 % 0 in /  0.0 mm
23:07 68.5 °F /  20.3 °C 57.9 °F /  14.4 °C 30.3 in /  1024.9 hPa NNE 11 mph /  17.7 km/h 13 mph /  20.9 km/h 69 % 0 in /  0.0 mm
23:12 68.4 °F /  20.2 °C 57.7 °F /  14.3 °C 30.3 in /  1024.9 hPa NNE 7 mph /  11.3 km/h 12 mph /  19.3 km/h 69 % 0 in /  0.0 mm
23:17 68.2 °F /  20.1 °C 58.1 °F /  14.5 °C 30.3 in /  1024.9 hPa NE 4 mph /  6.4 km/h 12 mph /  19.3 km/h 70 % 0 in /  0.0 mm
23:22 68.2 °F /  20.1 °C 58.1 °F /  14.5 °C 30.3 in /  1024.9 hPa NE 5 mph /  8.0 km/h 12 mph /  19.3 km/h 70 % 0 in /  0.0 mm
23:27 68 °F /  20.0 °C 57.9 °F /  14.4 °C 30.3 in /  1024.9 hPa NE 7 mph /  11.3 km/h 13 mph /  20.9 km/h 70 % 0 in /  0.0 mm
23:32 67.8 °F /  19.9 °C 57.7 °F /  14.3 °C 30.3 in /  1024.9 hPa NE 10 mph /  16.1 km/h 13 mph /  20.9 km/h 70 % 0 in /  0.0 mm
23:42 67.6 °F /  19.8 °C 57.9 °F /  14.4 °C 30.3 in /  1024.9 hPa NE 7 mph /  11.3 km/h 12 mph /  19.3 km/h 71 % 0 in /  0.0 mm
23:47 67.5 °F /  19.7 °C 57.7 °F /  14.3 °C 30.3 in /  1024.9 hPa NE 6 mph /  9.7 km/h 12 mph /  19.3 km/h 71 % 0 in /  0.0 mm
23:52 67.3 °F /  19.6 °C 57.9 °F /  14.4 °C 30.3 in /  1024.9 hPa NNE 7 mph /  11.3 km/h 12 mph /  19.3 km/h 72 % 0 in /  0.0 mm
23:57 66.9 °F /  19.4 °C 57.6 °F /  14.2 °C 30.3 in /  1024.9 hPa NNE 8 mph /  12.9 km/h 12 mph /  19.3 km/h 72 % 0 in /  0.0 mm
Meteo18
Compliments of Weather Underground - 4 mb

Script developed by  Jim McMurry - jmcmurry@mwt.net Adapted for the template by  Wim van der Kuil - Leuven-Template.eu

You find our weather info also at:

European Weather Network

Weather Underground

Equipment we use:

Weather-station
Davis Vue

Weather-program
Meteohub

Weather-server
Raspberry PI 2 B+

Provider
1 and 1

Davis Vue

Meteohub

Raspberry PI 2 B+

1 and 1